sensor_id;sensor_type;location;lat;lon;timestamp;temperature;humidity
21282;DHT22;10800;53.096;18.328;2023-04-08T00:02:34;7.00;99.90
21282;DHT22;10800;53.096;18.328;2023-04-08T00:07:39;7.10;99.90
21282;DHT22;10800;53.096;18.328;2023-04-08T00:12:45;7.00;99.90
21282;DHT22;10800;53.096;18.328;2023-04-08T00:17:51;6.90;99.90
21282;DHT22;10800;53.096;18.328;2023-04-08T00:22:57;6.80;99.90
21282;DHT22;10800;53.096;18.328;2023-04-08T00:28:03;6.80;99.90
21282;DHT22;10800;53.096;18.328;2023-04-08T00:33:08;6.70;99.90
21282;DHT22;10800;53.096;18.328;2023-04-08T00:38:13;6.60;99.90
21282;DHT22;10800;53.096;18.328;2023-04-08T00:43:19;6.50;99.90
21282;DHT22;10800;53.096;18.328;2023-04-08T00:48:24;6.50;99.90
21282;DHT22;10800;53.096;18.328;2023-04-08T00:53:30;6.40;99.90
21282;DHT22;10800;53.096;18.328;2023-04-08T00:58:36;6.30;99.90
21282;DHT22;10800;53.096;18.328;2023-04-08T01:04:04;6.30;99.90
21282;DHT22;10800;53.096;18.328;2023-04-08T01:09:09;6.20;99.90
21282;DHT22;10800;53.096;18.328;2023-04-08T01:14:20;6.20;99.90
21282;DHT22;10800;53.096;18.328;2023-04-08T01:19:33;6.10;99.90
21282;DHT22;10800;53.096;18.328;2023-04-08T01:24:42;6.00;99.90
21282;DHT22;10800;53.096;18.328;2023-04-08T01:29:48;5.90;99.90
21282;DHT22;10800;53.096;18.328;2023-04-08T01:34:54;5.80;99.90
21282;DHT22;10800;53.096;18.328;2023-04-08T01:40:01;5.60;99.90
21282;DHT22;10800;53.096;18.328;2023-04-08T01:45:09;5.50;99.90
21282;DHT22;10800;53.096;18.328;2023-04-08T01:50:15;5.30;99.90
21282;DHT22;10800;53.096;18.328;2023-04-08T01:55:21;5.20;99.90
21282;DHT22;10800;53.096;18.328;2023-04-08T02:00:29;5.10;99.90
21282;DHT22;10800;53.096;18.328;2023-04-08T02:05:35;5.00;99.90
21282;DHT22;10800;53.096;18.328;2023-04-08T02:10:40;4.90;99.90
21282;DHT22;10800;53.096;18.328;2023-04-08T02:15:50;4.70;99.90
21282;DHT22;10800;53.096;18.328;2023-04-08T02:21:01;4.50;99.90
21282;DHT22;10800;53.096;18.328;2023-04-08T02:26:11;4.40;99.90
21282;DHT22;10800;53.096;18.328;2023-04-08T02:31:16;4.30;99.90
21282;DHT22;10800;53.096;18.328;2023-04-08T02:36:23;4.30;99.90
21282;DHT22;10800;53.096;18.328;2023-04-08T02:41:30;4.20;99.90
21282;DHT22;10800;53.096;18.328;2023-04-08T02:46:36;4.10;99.90
21282;DHT22;10800;53.096;18.328;2023-04-08T02:51:41;4.00;99.90
21282;DHT22;10800;53.096;18.328;2023-04-08T02:56:48;3.90;99.90
21282;DHT22;10800;53.096;18.328;2023-04-08T03:01:53;3.80;99.90
21282;DHT22;10800;53.096;18.328;2023-04-08T03:06:58;3.80;99.90
21282;DHT22;10800;53.096;18.328;2023-04-08T03:12:04;3.70;99.90
21282;DHT22;10800;53.096;18.328;2023-04-08T03:17:09;3.60;99.90
21282;DHT22;10800;53.096;18.328;2023-04-08T03:22:14;3.50;99.90
21282;DHT22;10800;53.096;18.328;2023-04-08T03:27:19;3.40;99.90
21282;DHT22;10800;53.096;18.328;2023-04-08T03:32:26;3.30;99.90
21282;DHT22;10800;53.096;18.328;2023-04-08T03:37:31;3.30;99.90
21282;DHT22;10800;53.096;18.328;2023-04-08T03:42:37;3.30;99.90
21282;DHT22;10800;53.096;18.328;2023-04-08T03:47:42;3.30;99.90
21282;DHT22;10800;53.096;18.328;2023-04-08T03:52:47;3.40;99.90
21282;DHT22;10800;53.096;18.328;2023-04-08T03:57:52;3.40;99.90
21282;DHT22;10800;53.096;18.328;2023-04-08T04:02:58;3.20;99.90
21282;DHT22;10800;53.096;18.328;2023-04-08T04:08:03;3.10;99.90
21282;DHT22;10800;53.096;18.328;2023-04-08T04:13:09;3.10;99.90
21282;DHT22;10800;53.096;18.328;2023-04-08T04:18:14;3.00;99.90
21282;DHT22;10800;53.096;18.328;2023-04-08T04:23:19;2.90;99.90
21282;DHT22;10800;53.096;18.328;2023-04-08T04:28:26;2.80;99.90
21282;DHT22;10800;53.096;18.328;2023-04-08T04:33:33;2.80;99.90
21282;DHT22;10800;53.096;18.328;2023-04-08T04:38:39;2.80;99.90
21282;DHT22;10800;53.096;18.328;2023-04-08T04:43:54;2.90;99.90
21282;DHT22;10800;53.096;18.328;2023-04-08T04:48:59;2.90;99.90
21282;DHT22;10800;53.096;18.328;2023-04-08T04:54:04;2.90;99.90
21282;DHT22;10800;53.096;18.328;2023-04-08T04:59:10;2.80;99.90
21282;DHT22;10800;53.096;18.328;2023-04-08T05:04:21;2.80;99.90
21282;DHT22;10800;53.096;18.328;2023-04-08T05:09:26;2.90;99.90
21282;DHT22;10800;53.096;18.328;2023-04-08T05:14:31;3.10;99.90
21282;DHT22;10800;53.096;18.328;2023-04-08T05:19:36;3.40;99.90
21282;DHT22;10800;53.096;18.328;2023-04-08T05:24:42;3.60;99.90
21282;DHT22;10800;53.096;18.328;2023-04-08T05:30:07;3.80;99.90
21282;DHT22;10800;53.096;18.328;2023-04-08T05:35:13;4.10;99.90
21282;DHT22;10800;53.096;18.328;2023-04-08T05:40:19;4.30;99.90
21282;DHT22;10800;53.096;18.328;2023-04-08T05:45:24;4.50;99.90
21282;DHT22;10800;53.096;18.328;2023-04-08T05:50:30;4.80;99.90
21282;DHT22;10800;53.096;18.328;2023-04-08T05:55:37;5.30;99.90
21282;DHT22;10800;53.096;18.328;2023-04-08T06:00:42;5.70;99.90
21282;DHT22;10800;53.096;18.328;2023-04-08T06:05:48;6.10;99.90
21282;DHT22;10800;53.096;18.328;2023-04-08T06:10:53;6.40;99.90
21282;DHT22;10800;53.096;18.328;2023-04-08T06:16:09;6.70;99.90
21282;DHT22;10800;53.096;18.328;2023-04-08T06:21:15;7.10;99.90
21282;DHT22;10800;53.096;18.328;2023-04-08T06:26:20;7.30;99.90
21282;DHT22;10800;53.096;18.328;2023-04-08T06:31:27;7.40;99.90
21282;DHT22;10800;53.096;18.328;2023-04-08T06:36:33;7.70;99.90
21282;DHT22;10800;53.096;18.328;2023-04-08T06:41:38;7.80;99.90
21282;DHT22;10800;53.096;18.328;2023-04-08T06:46:44;8.00;99.90
21282;DHT22;10800;53.096;18.328;2023-04-08T06:51:50;8.10;99.90
21282;DHT22;10800;53.096;18.328;2023-04-08T06:56:56;8.70;99.90
21282;DHT22;10800;53.096;18.328;2023-04-08T07:02:01;8.90;99.90
21282;DHT22;10800;53.096;18.328;2023-04-08T07:07:07;9.10;99.90
21282;DHT22;10800;53.096;18.328;2023-04-08T07:12:12;9.30;99.90
21282;DHT22;10800;53.096;18.328;2023-04-08T07:17:18;9.50;99.90
21282;DHT22;10800;53.096;18.328;2023-04-08T07:22:23;9.80;99.90
21282;DHT22;10800;53.096;18.328;2023-04-08T07:27:29;10.50;99.90
21282;DHT22;10800;53.096;18.328;2023-04-08T07:32:40;11.50;99.90
21282;DHT22;10800;53.096;18.328;2023-04-08T07:37:42;11.60;99.90
21282;DHT22;10800;53.096;18.328;2023-04-08T07:42:47;10.80;99.90
21282;DHT22;10800;53.096;18.328;2023-04-08T07:47:52;11.60;99.90
21282;DHT22;10800;53.096;18.328;2023-04-08T07:52:58;11.10;99.90
21282;DHT22;10800;53.096;18.328;2023-04-08T07:58:03;10.60;99.90
21282;DHT22;10800;53.096;18.328;2023-04-08T08:03:08;10.20;99.90
21282;DHT22;10800;53.096;18.328;2023-04-08T08:08:14;9.50;99.90
21282;DHT22;10800;53.096;18.328;2023-04-08T08:13:19;9.60;99.90
21282;DHT22;10800;53.096;18.328;2023-04-08T08:18:25;9.50;99.90
21282;DHT22;10800;53.096;18.328;2023-04-08T08:23:30;10.30;99.90
21282;DHT22;10800;53.096;18.328;2023-04-08T08:28:36;10.00;99.90
21282;DHT22;10800;53.096;18.328;2023-04-08T08:33:42;9.70;99.90
21282;DHT22;10800;53.096;18.328;2023-04-08T08:38:48;10.20;99.90
21282;DHT22;10800;53.096;18.328;2023-04-08T08:44:04;10.20;99.90
21282;DHT22;10800;53.096;18.328;2023-04-08T08:49:11;10.40;99.90
21282;DHT22;10800;53.096;18.328;2023-04-08T08:54:19;10.60;99.90
21282;DHT22;10800;53.096;18.328;2023-04-08T08:59:25;11.10;99.90
21282;DHT22;10800;53.096;18.328;2023-04-08T09:04:30;10.80;99.90
21282;DHT22;10800;53.096;18.328;2023-04-08T09:09:52;12.20;99.90
21282;DHT22;10800;53.096;18.328;2023-04-08T09:15:05;13.80;97.80
21282;DHT22;10800;53.096;18.328;2023-04-08T09:20:12;14.60;93.80
21282;DHT22;10800;53.096;18.328;2023-04-08T09:25:23;13.90;91.90
21282;DHT22;10800;53.096;18.328;2023-04-08T09:30:31;13.80;94.60
21282;DHT22;10800;53.096;18.328;2023-04-08T09:35:36;13.30;92.00
21282;DHT22;10800;53.096;18.328;2023-04-08T09:40:44;13.90;92.70
21282;DHT22;10800;53.096;18.328;2023-04-08T09:45:52;14.10;90.50
21282;DHT22;10800;53.096;18.328;2023-04-08T09:51:02;14.70;88.40
21282;DHT22;10800;53.096;18.328;2023-04-08T09:56:15;14.90;90.30
21282;DHT22;10800;53.096;18.328;2023-04-08T10:01:27;15.50;87.50
21282;DHT22;10800;53.096;18.328;2023-04-08T10:06:33;15.90;77.90
21282;DHT22;10800;53.096;18.328;2023-04-08T10:11:43;15.80;80.80
21282;DHT22;10800;53.096;18.328;2023-04-08T10:16:49;16.10;82.90
21282;DHT22;10800;53.096;18.328;2023-04-08T10:21:55;15.70;79.60
21282;DHT22;10800;53.096;18.328;2023-04-08T10:27:00;15.80;77.10
21282;DHT22;10800;53.096;18.328;2023-04-08T10:32:07;15.80;78.10
21282;DHT22;10800;53.096;18.328;2023-04-08T10:37:14;16.50;81.10
21282;DHT22;10800;53.096;18.328;2023-04-08T10:42:25;17.10;78.90
21282;DHT22;10800;53.096;18.328;2023-04-08T10:47:26;17.40;77.20
21282;DHT22;10800;53.096;18.328;2023-04-08T10:52:32;18.00;75.70
21282;DHT22;10800;53.096;18.328;2023-04-08T10:57:37;18.20;69.80
21282;DHT22;10800;53.096;18.328;2023-04-08T11:02:54;18.40;69.10
21282;DHT22;10800;53.096;18.328;2023-04-08T11:08:01;18.30;68.20
21282;DHT22;10800;53.096;18.328;2023-04-08T11:13:07;18.60;70.20
21282;DHT22;10800;53.096;18.328;2023-04-08T11:18:13;18.90;66.60
21282;DHT22;10800;53.096;18.328;2023-04-08T11:23:24;18.30;65.90
21282;DHT22;10800;53.096;18.328;2023-04-08T11:28:30;18.20;64.00
21282;DHT22;10800;53.096;18.328;2023-04-08T11:33:36;18.20;65.30
21282;DHT22;10800;53.096;18.328;2023-04-08T11:38:43;18.80;66.60
21282;DHT22;10800;53.096;18.328;2023-04-08T11:43:52;18.90;63.90
21282;DHT22;10800;53.096;18.328;2023-04-08T11:54:24;18.50;64.90
21282;DHT22;10800;53.096;18.328;2023-04-08T11:59:18;18.50;66.10
21282;DHT22;10800;53.096;18.328;2023-04-08T12:04:27;17.70;61.80
21282;DHT22;10800;53.096;18.328;2023-04-08T12:09:38;17.40;62.70
21282;DHT22;10800;53.096;18.328;2023-04-08T12:14:43;17.40;64.60
21282;DHT22;10800;53.096;18.328;2023-04-08T12:19:49;18.00;63.10
21282;DHT22;10800;53.096;18.328;2023-04-08T12:24:54;18.60;66.10
21282;DHT22;10800;53.096;18.328;2023-04-08T12:35:27;18.50;61.90
21282;DHT22;10800;53.096;18.328;2023-04-08T12:40:35;18.40;63.70
21282;DHT22;10800;53.096;18.328;2023-04-08T12:45:40;18.40;65.80
21282;DHT22;10800;53.096;18.328;2023-04-08T12:50:46;18.40;64.30
21282;DHT22;10800;53.096;18.328;2023-04-08T12:55:51;17.90;62.10
21282;DHT22;10800;53.096;18.328;2023-04-08T13:00:58;18.30;63.80
21282;DHT22;10800;53.096;18.328;2023-04-08T13:06:04;18.20;60.70
21282;DHT22;10800;53.096;18.328;2023-04-08T13:11:09;18.20;64.00
21282;DHT22;10800;53.096;18.328;2023-04-08T13:16:14;18.30;65.00
21282;DHT22;10800;53.096;18.328;2023-04-08T13:21:20;17.80;63.90
21282;DHT22;10800;53.096;18.328;2023-04-08T13:26:25;17.80;64.40
21282;DHT22;10800;53.096;18.328;2023-04-08T13:31:30;17.70;63.20
21282;DHT22;10800;53.096;18.328;2023-04-08T13:36:36;17.50;61.80
21282;DHT22;10800;53.096;18.328;2023-04-08T13:41:41;17.30;64.80
21282;DHT22;10800;53.096;18.328;2023-04-08T13:46:53;17.40;63.30
21282;DHT22;10800;53.096;18.328;2023-04-08T13:51:59;17.60;63.20
21282;DHT22;10800;53.096;18.328;2023-04-08T13:57:04;17.90;65.10
21282;DHT22;10800;53.096;18.328;2023-04-08T14:02:14;17.20;58.10
21282;DHT22;10800;53.096;18.328;2023-04-08T14:07:20;16.90;63.40
21282;DHT22;10800;53.096;18.328;2023-04-08T14:12:28;17.10;62.80
21282;DHT22;10800;53.096;18.328;2023-04-08T14:17:33;16.90;61.30
21282;DHT22;10800;53.096;18.328;2023-04-08T14:22:39;16.90;64.20
21282;DHT22;10800;53.096;18.328;2023-04-08T14:27:47;17.20;62.90
21282;DHT22;10800;53.096;18.328;2023-04-08T14:32:56;17.10;62.70
21282;DHT22;10800;53.096;18.328;2023-04-08T14:38:04;17.10;64.30
21282;DHT22;10800;53.096;18.328;2023-04-08T14:43:10;16.90;63.00
21282;DHT22;10800;53.096;18.328;2023-04-08T14:48:17;16.90;62.70
21282;DHT22;10800;53.096;18.328;2023-04-08T14:53:22;16.70;62.50
21282;DHT22;10800;53.096;18.328;2023-04-08T14:58:27;16.50;61.90
21282;DHT22;10800;53.096;18.328;2023-04-08T15:03:33;16.30;63.30
21282;DHT22;10800;53.096;18.328;2023-04-08T15:08:39;15.90;62.70
21282;DHT22;10800;53.096;18.328;2023-04-08T15:13:46;15.90;63.60
21282;DHT22;10800;53.096;18.328;2023-04-08T15:18:51;15.80;64.60
21282;DHT22;10800;53.096;18.328;2023-04-08T15:23:56;15.70;65.50
21282;DHT22;10800;53.096;18.328;2023-04-08T15:29:02;15.50;65.60
21282;DHT22;10800;53.096;18.328;2023-04-08T15:34:07;15.50;67.00
21282;DHT22;10800;53.096;18.328;2023-04-08T15:39:12;15.30;66.10
21282;DHT22;10800;53.096;18.328;2023-04-08T15:44:18;15.20;66.90
21282;DHT22;10800;53.096;18.328;2023-04-08T15:49:23;14.90;66.40
21282;DHT22;10800;53.096;18.328;2023-04-08T15:54:29;14.90;67.30
21282;DHT22;10800;53.096;18.328;2023-04-08T15:59:35;14.70;68.30
21282;DHT22;10800;53.096;18.328;2023-04-08T16:04:40;14.60;69.00
21282;DHT22;10800;53.096;18.328;2023-04-08T16:09:47;14.50;69.40
21282;DHT22;10800;53.096;18.328;2023-04-08T16:14:52;14.40;70.30
21282;DHT22;10800;53.096;18.328;2023-04-08T16:19:58;14.30;71.20
21282;DHT22;10800;53.096;18.328;2023-04-08T16:25:03;14.10;70.90
21282;DHT22;10800;53.096;18.328;2023-04-08T16:30:09;14.00;72.10
21282;DHT22;10800;53.096;18.328;2023-04-08T16:35:15;13.90;72.60
21282;DHT22;10800;53.096;18.328;2023-04-08T16:40:22;13.70;72.10
21282;DHT22;10800;53.096;18.328;2023-04-08T16:45:28;13.50;73.00
21282;DHT22;10800;53.096;18.328;2023-04-08T16:50:36;13.40;73.50
21282;DHT22;10800;53.096;18.328;2023-04-08T16:55:40;13.30;75.00
21282;DHT22;10800;53.096;18.328;2023-04-08T17:00:45;13.10;75.60
21282;DHT22;10800;53.096;18.328;2023-04-08T17:05:51;12.90;75.40
21282;DHT22;10800;53.096;18.328;2023-04-08T17:11:04;12.70;76.60
21282;DHT22;10800;53.096;18.328;2023-04-08T17:16:14;12.40;78.10
21282;DHT22;10800;53.096;18.328;2023-04-08T17:21:20;12.20;79.20
21282;DHT22;10800;53.096;18.328;2023-04-08T17:26:25;12.00;81.60
21282;DHT22;10800;53.096;18.328;2023-04-08T17:31:31;11.90;83.80
21282;DHT22;10800;53.096;18.328;2023-04-08T17:36:38;11.50;84.50
21282;DHT22;10800;53.096;18.328;2023-04-08T17:41:43;11.30;86.00
21282;DHT22;10800;53.096;18.328;2023-04-08T17:46:49;11.10;87.50
21282;DHT22;10800;53.096;18.328;2023-04-08T17:51:55;10.90;89.00
21282;DHT22;10800;53.096;18.328;2023-04-08T17:57:00;10.80;90.10
21282;DHT22;10800;53.096;18.328;2023-04-08T18:02:06;10.50;90.70
21282;DHT22;10800;53.096;18.328;2023-04-08T18:07:12;10.40;91.40
21282;DHT22;10800;53.096;18.328;2023-04-08T18:12:17;10.10;92.20
21282;DHT22;10800;53.096;18.328;2023-04-08T18:17:22;9.90;93.10
21282;DHT22;10800;53.096;18.328;2023-04-08T18:22:28;9.80;94.10
21282;DHT22;10800;53.096;18.328;2023-04-08T18:27:33;9.50;95.80
21282;DHT22;10800;53.096;18.328;2023-04-08T18:32:38;9.30;97.50
21282;DHT22;10800;53.096;18.328;2023-04-08T18:37:44;9.20;99.60
21282;DHT22;10800;53.096;18.328;2023-04-08T18:42:49;9.00;99.90
21282;DHT22;10800;53.096;18.328;2023-04-08T18:47:54;8.90;99.90
21282;DHT22;10800;53.096;18.328;2023-04-08T18:52:59;8.80;99.90
21282;DHT22;10800;53.096;18.328;2023-04-08T18:58:05;8.60;99.90
21282;DHT22;10800;53.096;18.328;2023-04-08T19:03:10;8.50;99.90
21282;DHT22;10800;53.096;18.328;2023-04-08T19:08:16;8.40;99.90
21282;DHT22;10800;53.096;18.328;2023-04-08T19:13:21;8.30;99.90
21282;DHT22;10800;53.096;18.328;2023-04-08T19:18:27;8.10;99.90
21282;DHT22;10800;53.096;18.328;2023-04-08T19:23:32;8.00;99.90
21282;DHT22;10800;53.096;18.328;2023-04-08T19:28:37;7.90;99.90
21282;DHT22;10800;53.096;18.328;2023-04-08T19:33:43;7.70;99.90
21282;DHT22;10800;53.096;18.328;2023-04-08T19:38:48;7.70;99.90
21282;DHT22;10800;53.096;18.328;2023-04-08T19:43:54;7.60;99.90
21282;DHT22;10800;53.096;18.328;2023-04-08T19:48:59;7.60;99.90
21282;DHT22;10800;53.096;18.328;2023-04-08T19:54:05;7.40;99.90
21282;DHT22;10800;53.096;18.328;2023-04-08T19:59:10;7.30;99.90
21282;DHT22;10800;53.096;18.328;2023-04-08T20:04:15;7.20;99.90
21282;DHT22;10800;53.096;18.328;2023-04-08T20:09:20;7.10;99.90
21282;DHT22;10800;53.096;18.328;2023-04-08T20:14:26;7.10;99.90
21282;DHT22;10800;53.096;18.328;2023-04-08T20:19:31;7.00;99.90
21282;DHT22;10800;53.096;18.328;2023-04-08T20:24:36;6.90;99.90
21282;DHT22;10800;53.096;18.328;2023-04-08T20:29:41;6.90;99.90
21282;DHT22;10800;53.096;18.328;2023-04-08T20:34:47;6.80;99.90
21282;DHT22;10800;53.096;18.328;2023-04-08T20:39:52;6.70;99.90
21282;DHT22;10800;53.096;18.328;2023-04-08T20:44:57;6.60;99.90
21282;DHT22;10800;53.096;18.328;2023-04-08T20:50:02;6.50;99.90
21282;DHT22;10800;53.096;18.328;2023-04-08T20:55:08;6.50;99.90
21282;DHT22;10800;53.096;18.328;2023-04-08T21:00:13;6.40;99.90
21282;DHT22;10800;53.096;18.328;2023-04-08T21:05:20;6.40;99.90
21282;DHT22;10800;53.096;18.328;2023-04-08T21:10:25;6.30;99.90
21282;DHT22;10800;53.096;18.328;2023-04-08T21:15:30;6.30;99.90
21282;DHT22;10800;53.096;18.328;2023-04-08T21:20:38;6.20;99.90
21282;DHT22;10800;53.096;18.328;2023-04-08T21:25:43;6.10;99.90
21282;DHT22;10800;53.096;18.328;2023-04-08T21:30:49;6.20;99.90
21282;DHT22;10800;53.096;18.328;2023-04-08T21:35:58;6.10;99.90
21282;DHT22;10800;53.096;18.328;2023-04-08T21:41:15;6.10;99.90
21282;DHT22;10800;53.096;18.328;2023-04-08T21:46:24;6.10;99.90
21282;DHT22;10800;53.096;18.328;2023-04-08T21:51:31;6.10;99.90
21282;DHT22;10800;53.096;18.328;2023-04-08T21:56:38;6.10;99.90
21282;DHT22;10800;53.096;18.328;2023-04-08T22:01:43;6.10;99.90
21282;DHT22;10800;53.096;18.328;2023-04-08T22:06:49;6.00;99.90
21282;DHT22;10800;53.096;18.328;2023-04-08T22:11:54;6.10;99.90
21282;DHT22;10800;53.096;18.328;2023-04-08T22:17:01;6.20;99.90
21282;DHT22;10800;53.096;18.328;2023-04-08T22:22:07;6.20;99.90
21282;DHT22;10800;53.096;18.328;2023-04-08T22:27:13;6.30;99.90
21282;DHT22;10800;53.096;18.328;2023-04-08T22:32:18;6.30;99.90
21282;DHT22;10800;53.096;18.328;2023-04-08T22:37:24;6.30;99.90
21282;DHT22;10800;53.096;18.328;2023-04-08T22:42:29;6.40;99.90
21282;DHT22;10800;53.096;18.328;2023-04-08T22:47:34;6.40;99.90
21282;DHT22;10800;53.096;18.328;2023-04-08T22:52:40;6.40;99.90
21282;DHT22;10800;53.096;18.328;2023-04-08T22:57:45;6.40;99.90
21282;DHT22;10800;53.096;18.328;2023-04-08T23:02:51;6.40;99.90
21282;DHT22;10800;53.096;18.328;2023-04-08T23:07:58;6.40;99.90
21282;DHT22;10800;53.096;18.328;2023-04-08T23:13:04;6.50;99.90
21282;DHT22;10800;53.096;18.328;2023-04-08T23:18:09;6.50;99.90
21282;DHT22;10800;53.096;18.328;2023-04-08T23:23:33;6.60;99.90
21282;DHT22;10800;53.096;18.328;2023-04-08T23:28:40;6.60;99.90
21282;DHT22;10800;53.096;18.328;2023-04-08T23:33:45;6.60;99.90
21282;DHT22;10800;53.096;18.328;2023-04-08T23:38:51;6.70;99.90
21282;DHT22;10800;53.096;18.328;2023-04-08T23:43:56;6.70;99.90
21282;DHT22;10800;53.096;18.328;2023-04-08T23:49:01;6.60;99.90
21282;DHT22;10800;53.096;18.328;2023-04-08T23:54:07;6.50;99.90
21282;DHT22;10800;53.096;18.328;2023-04-08T23:59:12;6.40;99.90
